Aviation Digital Data Service (ADDS)

Output produced by TAFs form (1004 UTC 31 May 2016)
found at http://aviationweather.gov/adds/tafs/
 
KMTJ 310520Z 3106/0106 12010KT P6SM SCT250 
     FM311200 13006KT P6SM FEW250 
     FM311700 34006KT P6SM FEW250 
     FM312000 32008G15KT P6SM SCT250 
     FM010300 14006KT P6SM FEW250